sensor_id;sensor_type;location;lat;lon;timestamp;temperature;humidity
23991;DHT22;12205;50.600;4.608;2022-10-22T00:02:18;15.20;99.90
23991;DHT22;12205;50.600;4.608;2022-10-22T00:04:45;15.20;99.90
23991;DHT22;12205;50.600;4.608;2022-10-22T00:07:13;15.20;99.90
23991;DHT22;12205;50.600;4.608;2022-10-22T00:09:40;15.20;99.90
23991;DHT22;12205;50.600;4.608;2022-10-22T00:12:09;15.20;99.90
23991;DHT22;12205;50.600;4.608;2022-10-22T00:14:37;15.20;99.90
23991;DHT22;12205;50.600;4.608;2022-10-22T00:17:04;15.20;99.90
23991;DHT22;12205;50.600;4.608;2022-10-22T00:19:31;15.20;99.90
23991;DHT22;12205;50.600;4.608;2022-10-22T00:21:58;15.20;99.90
23991;DHT22;12205;50.600;4.608;2022-10-22T00:24:30;15.30;99.90
23991;DHT22;12205;50.600;4.608;2022-10-22T00:26:57;15.30;99.90
23991;DHT22;12205;50.600;4.608;2022-10-22T00:29:26;15.30;99.90
23991;DHT22;12205;50.600;4.608;2022-10-22T00:31:53;15.30;99.90
23991;DHT22;12205;50.600;4.608;2022-10-22T00:34:21;15.20;99.90
23991;DHT22;12205;50.600;4.608;2022-10-22T00:36:49;15.30;99.90
23991;DHT22;12205;50.600;4.608;2022-10-22T00:39:19;15.20;99.90
23991;DHT22;12205;50.600;4.608;2022-10-22T00:41:49;15.30;99.90
23991;DHT22;12205;50.600;4.608;2022-10-22T00:47:43;15.20;99.90
23991;DHT22;12205;50.600;4.608;2022-10-22T00:50:17;15.20;99.90
23991;DHT22;12205;50.600;4.608;2022-10-22T00:52:47;15.20;99.90
23991;DHT22;12205;50.600;4.608;2022-10-22T00:55:15;15.20;99.90
23991;DHT22;12205;50.600;4.608;2022-10-22T00:57:43;15.20;99.90
23991;DHT22;12205;50.600;4.608;2022-10-22T01:00:12;15.10;99.90
23991;DHT22;12205;50.600;4.608;2022-10-22T01:02:41;15.10;99.90
23991;DHT22;12205;50.600;4.608;2022-10-22T01:05:09;15.00;99.90
23991;DHT22;12205;50.600;4.608;2022-10-22T01:07:42;15.00;99.90
23991;DHT22;12205;50.600;4.608;2022-10-22T01:10:17;15.00;99.90
23991;DHT22;12205;50.600;4.608;2022-10-22T01:13:00;15.00;99.90
23991;DHT22;12205;50.600;4.608;2022-10-22T01:15:44;15.00;99.90
23991;DHT22;12205;50.600;4.608;2022-10-22T01:18:20;15.00;99.90
23991;DHT22;12205;50.600;4.608;2022-10-22T01:21:02;14.90;99.90
23991;DHT22;12205;50.600;4.608;2022-10-22T01:24:11;14.90;99.90
23991;DHT22;12205;50.600;4.608;2022-10-22T01:27:14;14.90;99.90
23991;DHT22;12205;50.600;4.608;2022-10-22T01:29:53;14.90;99.90
23991;DHT22;12205;50.600;4.608;2022-10-22T01:32:25;14.90;99.90
23991;DHT22;12205;50.600;4.608;2022-10-22T01:34:58;14.90;99.90
23991;DHT22;12205;50.600;4.608;2022-10-22T01:37:29;14.80;99.90
23991;DHT22;12205;50.600;4.608;2022-10-22T01:40:00;14.80;99.90
23991;DHT22;12205;50.600;4.608;2022-10-22T01:42:27;14.80;99.90
23991;DHT22;12205;50.600;4.608;2022-10-22T01:44:56;14.80;99.90
23991;DHT22;12205;50.600;4.608;2022-10-22T01:47:35;14.80;99.90
23991;DHT22;12205;50.600;4.608;2022-10-22T01:50:27;14.80;99.90
23991;DHT22;12205;50.600;4.608;2022-10-22T01:53:26;14.80;99.90
23991;DHT22;12205;50.600;4.608;2022-10-22T01:56:07;14.80;99.90
23991;DHT22;12205;50.600;4.608;2022-10-22T01:59:00;14.80;99.90
23991;DHT22;12205;50.600;4.608;2022-10-22T02:01:40;14.80;99.90
23991;DHT22;12205;50.600;4.608;2022-10-22T02:04:17;14.70;99.90
23991;DHT22;12205;50.600;4.608;2022-10-22T02:06:50;14.70;99.90
23991;DHT22;12205;50.600;4.608;2022-10-22T02:09:21;14.70;99.90
23991;DHT22;12205;50.600;4.608;2022-10-22T02:11:53;14.80;99.90
23991;DHT22;12205;50.600;4.608;2022-10-22T02:14:22;14.70;99.90
23991;DHT22;12205;50.600;4.608;2022-10-22T02:16:57;14.70;99.90
23991;DHT22;12205;50.600;4.608;2022-10-22T02:19:33;14.70;99.90
23991;DHT22;12205;50.600;4.608;2022-10-22T02:22:04;14.70;99.90
23991;DHT22;12205;50.600;4.608;2022-10-22T02:24:31;14.60;99.90
23991;DHT22;12205;50.600;4.608;2022-10-22T02:27:03;14.60;99.90
23991;DHT22;12205;50.600;4.608;2022-10-22T02:29:39;14.70;99.90
23991;DHT22;12205;50.600;4.608;2022-10-22T02:32:20;14.70;99.90
23991;DHT22;12205;50.600;4.608;2022-10-22T02:34:51;14.60;99.90
23991;DHT22;12205;50.600;4.608;2022-10-22T02:37:22;14.60;99.90
23991;DHT22;12205;50.600;4.608;2022-10-22T02:39:51;14.60;99.90
23991;DHT22;12205;50.600;4.608;2022-10-22T02:42:22;14.60;99.90
23991;DHT22;12205;50.600;4.608;2022-10-22T02:44:51;14.60;99.90
23991;DHT22;12205;50.600;4.608;2022-10-22T02:47:19;14.60;99.90
23991;DHT22;12205;50.600;4.608;2022-10-22T02:49:46;14.60;99.90
23991;DHT22;12205;50.600;4.608;2022-10-22T02:52:13;14.60;99.90
23991;DHT22;12205;50.600;4.608;2022-10-22T02:54:40;14.60;99.90
23991;DHT22;12205;50.600;4.608;2022-10-22T02:57:07;14.60;99.90
23991;DHT22;12205;50.600;4.608;2022-10-22T02:59:34;14.60;99.90
23991;DHT22;12205;50.600;4.608;2022-10-22T03:02:02;14.50;99.90
23991;DHT22;12205;50.600;4.608;2022-10-22T03:04:30;14.50;99.90
23991;DHT22;12205;50.600;4.608;2022-10-22T03:06:57;14.50;99.90
23991;DHT22;12205;50.600;4.608;2022-10-22T03:09:24;14.50;99.90
23991;DHT22;12205;50.600;4.608;2022-10-22T03:11:51;14.50;99.90
23991;DHT22;12205;50.600;4.608;2022-10-22T03:14:19;14.50;99.90
23991;DHT22;12205;50.600;4.608;2022-10-22T03:16:46;14.40;99.90
23991;DHT22;12205;50.600;4.608;2022-10-22T03:19:13;14.40;99.90
23991;DHT22;12205;50.600;4.608;2022-10-22T03:21:44;14.50;99.90
23991;DHT22;12205;50.600;4.608;2022-10-22T03:24:16;14.40;99.90
23991;DHT22;12205;50.600;4.608;2022-10-22T03:26:49;14.40;99.90
23991;DHT22;12205;50.600;4.608;2022-10-22T03:29:18;14.40;99.90
23991;DHT22;12205;50.600;4.608;2022-10-22T03:31:51;14.40;99.90
23991;DHT22;12205;50.600;4.608;2022-10-22T03:34:18;14.40;99.90
23991;DHT22;12205;50.600;4.608;2022-10-22T03:36:47;14.40;99.90
23991;DHT22;12205;50.600;4.608;2022-10-22T03:39:16;14.40;99.90
23991;DHT22;12205;50.600;4.608;2022-10-22T03:41:45;14.30;99.90
23991;DHT22;12205;50.600;4.608;2022-10-22T03:44:14;14.30;99.90
23991;DHT22;12205;50.600;4.608;2022-10-22T03:46:43;14.40;99.90
23991;DHT22;12205;50.600;4.608;2022-10-22T03:49:10;14.40;99.90
23991;DHT22;12205;50.600;4.608;2022-10-22T03:51:37;14.40;99.90
23991;DHT22;12205;50.600;4.608;2022-10-22T03:54:06;14.40;99.90
23991;DHT22;12205;50.600;4.608;2022-10-22T03:56:33;14.40;99.90
23991;DHT22;12205;50.600;4.608;2022-10-22T03:59:00;14.40;99.90
23991;DHT22;12205;50.600;4.608;2022-10-22T04:01:29;14.40;99.90
23991;DHT22;12205;50.600;4.608;2022-10-22T04:03:57;14.40;99.90
23991;DHT22;12205;50.600;4.608;2022-10-22T04:06:24;14.40;99.90
23991;DHT22;12205;50.600;4.608;2022-10-22T04:08:52;14.40;99.90
23991;DHT22;12205;50.600;4.608;2022-10-22T04:11:20;14.40;99.90
23991;DHT22;12205;50.600;4.608;2022-10-22T04:13:47;14.40;99.90
23991;DHT22;12205;50.600;4.608;2022-10-22T04:16:16;14.40;99.90
23991;DHT22;12205;50.600;4.608;2022-10-22T04:18:47;14.40;99.90
23991;DHT22;12205;50.600;4.608;2022-10-22T04:21:16;14.40;99.90
23991;DHT22;12205;50.600;4.608;2022-10-22T04:23:46;14.40;99.90
23991;DHT22;12205;50.600;4.608;2022-10-22T04:26:15;14.40;99.90
23991;DHT22;12205;50.600;4.608;2022-10-22T04:28:44;14.40;99.90
23991;DHT22;12205;50.600;4.608;2022-10-22T04:31:14;14.40;99.90
23991;DHT22;12205;50.600;4.608;2022-10-22T04:33:43;14.30;99.90
23991;DHT22;12205;50.600;4.608;2022-10-22T04:36:12;14.40;99.90
23991;DHT22;12205;50.600;4.608;2022-10-22T04:38:42;14.30;99.90
23991;DHT22;12205;50.600;4.608;2022-10-22T04:41:12;14.40;99.90
23991;DHT22;12205;50.600;4.608;2022-10-22T04:43:40;14.30;99.90
23991;DHT22;12205;50.600;4.608;2022-10-22T04:46:11;14.30;99.90
23991;DHT22;12205;50.600;4.608;2022-10-22T04:48:40;14.30;99.90
23991;DHT22;12205;50.600;4.608;2022-10-22T04:51:10;14.20;99.90
23991;DHT22;12205;50.600;4.608;2022-10-22T04:53:39;14.20;99.90
23991;DHT22;12205;50.600;4.608;2022-10-22T04:56:07;14.20;99.90
23991;DHT22;12205;50.600;4.608;2022-10-22T04:58:36;14.30;99.90
23991;DHT22;12205;50.600;4.608;2022-10-22T05:01:13;14.20;99.90
23991;DHT22;12205;50.600;4.608;2022-10-22T05:03:41;14.20;99.90
23991;DHT22;12205;50.600;4.608;2022-10-22T05:06:09;14.20;99.90
23991;DHT22;12205;50.600;4.608;2022-10-22T05:08:37;14.20;99.90
23991;DHT22;12205;50.600;4.608;2022-10-22T05:11:12;14.20;99.90
23991;DHT22;12205;50.600;4.608;2022-10-22T05:13:40;14.20;99.90
23991;DHT22;12205;50.600;4.608;2022-10-22T05:16:08;14.10;99.90
23991;DHT22;12205;50.600;4.608;2022-10-22T05:18:38;14.10;99.90
23991;DHT22;12205;50.600;4.608;2022-10-22T05:21:08;14.10;99.90
23991;DHT22;12205;50.600;4.608;2022-10-22T05:23:37;14.10;99.90
23991;DHT22;12205;50.600;4.608;2022-10-22T05:26:06;14.10;99.90
23991;DHT22;12205;50.600;4.608;2022-10-22T05:28:34;14.00;99.90
23991;DHT22;12205;50.600;4.608;2022-10-22T05:31:03;14.00;99.90
23991;DHT22;12205;50.600;4.608;2022-10-22T05:33:32;14.00;99.90
23991;DHT22;12205;50.600;4.608;2022-10-22T05:36:02;14.00;99.90
23991;DHT22;12205;50.600;4.608;2022-10-22T05:38:32;14.00;99.90
23991;DHT22;12205;50.600;4.608;2022-10-22T05:41:01;14.00;99.90
23991;DHT22;12205;50.600;4.608;2022-10-22T05:43:29;14.10;99.90
23991;DHT22;12205;50.600;4.608;2022-10-22T05:46:00;14.10;99.90
23991;DHT22;12205;50.600;4.608;2022-10-22T05:48:29;14.10;99.90
23991;DHT22;12205;50.600;4.608;2022-10-22T05:50:56;14.10;99.90
23991;DHT22;12205;50.600;4.608;2022-10-22T05:53:31;14.10;99.90
23991;DHT22;12205;50.600;4.608;2022-10-22T05:56:02;14.20;99.90
23991;DHT22;12205;50.600;4.608;2022-10-22T05:58:32;14.20;99.90
23991;DHT22;12205;50.600;4.608;2022-10-22T06:01:01;14.30;99.90
23991;DHT22;12205;50.600;4.608;2022-10-22T06:03:29;14.30;99.90
23991;DHT22;12205;50.600;4.608;2022-10-22T06:05:59;14.30;99.90
23991;DHT22;12205;50.600;4.608;2022-10-22T06:08:29;14.40;99.90
23991;DHT22;12205;50.600;4.608;2022-10-22T06:10:57;14.30;99.90
23991;DHT22;12205;50.600;4.608;2022-10-22T06:13:24;14.40;99.90
23991;DHT22;12205;50.600;4.608;2022-10-22T06:15:51;14.40;99.90
23991;DHT22;12205;50.600;4.608;2022-10-22T06:18:19;14.40;99.90
23991;DHT22;12205;50.600;4.608;2022-10-22T06:20:46;14.50;99.90
23991;DHT22;12205;50.600;4.608;2022-10-22T06:23:13;14.50;99.90
23991;DHT22;12205;50.600;4.608;2022-10-22T06:25:42;14.50;99.90
23991;DHT22;12205;50.600;4.608;2022-10-22T06:28:09;14.60;99.90
23991;DHT22;12205;50.600;4.608;2022-10-22T06:30:36;14.60;99.90
23991;DHT22;12205;50.600;4.608;2022-10-22T06:33:04;14.60;99.90
23991;DHT22;12205;50.600;4.608;2022-10-22T06:35:31;14.60;99.90
23991;DHT22;12205;50.600;4.608;2022-10-22T06:37:58;14.60;99.90
23991;DHT22;12205;50.600;4.608;2022-10-22T06:40:25;14.60;99.90
23991;DHT22;12205;50.600;4.608;2022-10-22T06:42:54;14.60;99.90
23991;DHT22;12205;50.600;4.608;2022-10-22T06:45:21;14.70;99.90
23991;DHT22;12205;50.600;4.608;2022-10-22T06:47:48;14.70;99.90
23991;DHT22;12205;50.600;4.608;2022-10-22T06:50:15;14.70;99.90
23991;DHT22;12205;50.600;4.608;2022-10-22T06:52:43;14.70;99.90
23991;DHT22;12205;50.600;4.608;2022-10-22T06:55:10;14.80;99.90
23991;DHT22;12205;50.600;4.608;2022-10-22T06:57:37;14.80;99.90
23991;DHT22;12205;50.600;4.608;2022-10-22T07:00:07;14.90;99.90
23991;DHT22;12205;50.600;4.608;2022-10-22T07:02:35;14.90;99.90
23991;DHT22;12205;50.600;4.608;2022-10-22T07:05:02;15.00;99.90
23991;DHT22;12205;50.600;4.608;2022-10-22T07:07:29;15.00;99.90
23991;DHT22;12205;50.600;4.608;2022-10-22T07:09:56;15.00;99.90
23991;DHT22;12205;50.600;4.608;2022-10-22T07:12:24;15.00;99.90
23991;DHT22;12205;50.600;4.608;2022-10-22T07:14:51;15.00;99.90
23991;DHT22;12205;50.600;4.608;2022-10-22T07:17:19;15.00;99.90
23991;DHT22;12205;50.600;4.608;2022-10-22T07:19:46;15.00;99.90
23991;DHT22;12205;50.600;4.608;2022-10-22T07:22:13;15.00;99.90
23991;DHT22;12205;50.600;4.608;2022-10-22T07:24:41;15.10;99.90
23991;DHT22;12205;50.600;4.608;2022-10-22T07:27:08;15.00;99.90
23991;DHT22;12205;50.600;4.608;2022-10-22T07:29:35;15.10;99.90
23991;DHT22;12205;50.600;4.608;2022-10-22T07:32:02;15.00;99.90
23991;DHT22;12205;50.600;4.608;2022-10-22T07:34:30;15.00;99.90
23991;DHT22;12205;50.600;4.608;2022-10-22T07:36:57;15.10;99.90
23991;DHT22;12205;50.600;4.608;2022-10-22T07:39:24;15.10;99.90
23991;DHT22;12205;50.600;4.608;2022-10-22T07:41:52;15.20;99.90
23991;DHT22;12205;50.600;4.608;2022-10-22T07:44:19;15.20;99.90
23991;DHT22;12205;50.600;4.608;2022-10-22T07:46:46;15.20;99.90
23991;DHT22;12205;50.600;4.608;2022-10-22T07:49:13;15.20;99.90
23991;DHT22;12205;50.600;4.608;2022-10-22T07:51:42;15.20;99.90
23991;DHT22;12205;50.600;4.608;2022-10-22T07:54:09;15.20;99.90
23991;DHT22;12205;50.600;4.608;2022-10-22T07:56:36;15.30;99.90
23991;DHT22;12205;50.600;4.608;2022-10-22T07:59:03;15.30;99.90
23991;DHT22;12205;50.600;4.608;2022-10-22T08:01:30;15.30;99.90
23991;DHT22;12205;50.600;4.608;2022-10-22T08:03:57;15.30;99.90
23991;DHT22;12205;50.600;4.608;2022-10-22T08:06:24;15.30;99.90
23991;DHT22;12205;50.600;4.608;2022-10-22T08:08:53;15.30;99.90
23991;DHT22;12205;50.600;4.608;2022-10-22T08:11:20;15.40;99.90
23991;DHT22;12205;50.600;4.608;2022-10-22T08:13:47;15.40;99.90
23991;DHT22;12205;50.600;4.608;2022-10-22T08:16:14;15.40;99.90
23991;DHT22;12205;50.600;4.608;2022-10-22T08:18:41;15.40;99.90
23991;DHT22;12205;50.600;4.608;2022-10-22T08:21:08;15.40;99.90
23991;DHT22;12205;50.600;4.608;2022-10-22T08:23:35;15.60;99.90
23991;DHT22;12205;50.600;4.608;2022-10-22T08:26:04;15.70;99.90
23991;DHT22;12205;50.600;4.608;2022-10-22T08:28:32;15.70;99.90
23991;DHT22;12205;50.600;4.608;2022-10-22T08:31:01;15.80;99.90
23991;DHT22;12205;50.600;4.608;2022-10-22T08:33:28;15.80;99.90
23991;DHT22;12205;50.600;4.608;2022-10-22T08:35:55;15.80;99.90
23991;DHT22;12205;50.600;4.608;2022-10-22T08:38:23;15.90;99.90
23991;DHT22;12205;50.600;4.608;2022-10-22T08:40:52;16.00;99.90
23991;DHT22;12205;50.600;4.608;2022-10-22T08:43:40;16.20;99.90
23991;DHT22;12205;50.600;4.608;2022-10-22T08:46:39;16.20;99.90
23991;DHT22;12205;50.600;4.608;2022-10-22T08:49:19;16.30;99.90
23991;DHT22;12205;50.600;4.608;2022-10-22T08:51:48;16.30;99.90
23991;DHT22;12205;50.600;4.608;2022-10-22T08:54:24;16.40;99.90
23991;DHT22;12205;50.600;4.608;2022-10-22T08:57:08;16.30;99.90
23991;DHT22;12205;50.600;4.608;2022-10-22T08:59:49;16.40;99.90
23991;DHT22;12205;50.600;4.608;2022-10-22T09:02:32;16.50;99.90
23991;DHT22;12205;50.600;4.608;2022-10-22T09:05:18;16.50;99.90
23991;DHT22;12205;50.600;4.608;2022-10-22T09:07:54;16.50;99.90
23991;DHT22;12205;50.600;4.608;2022-10-22T09:10:26;16.50;99.90
23991;DHT22;12205;50.600;4.608;2022-10-22T09:12:58;16.40;99.90
23991;DHT22;12205;50.600;4.608;2022-10-22T09:15:27;16.40;99.90
23991;DHT22;12205;50.600;4.608;2022-10-22T09:18:09;16.40;99.90
23991;DHT22;12205;50.600;4.608;2022-10-22T09:20:49;16.40;99.90
23991;DHT22;12205;50.600;4.608;2022-10-22T09:23:26;16.40;99.90
23991;DHT22;12205;50.600;4.608;2022-10-22T09:25:58;16.50;99.90
23991;DHT22;12205;50.600;4.608;2022-10-22T09:28:26;16.60;99.90
23991;DHT22;12205;50.600;4.608;2022-10-22T09:30:54;16.60;99.90
23991;DHT22;12205;50.600;4.608;2022-10-22T09:33:25;16.60;99.90
23991;DHT22;12205;50.600;4.608;2022-10-22T09:35:57;16.70;99.90
23991;DHT22;12205;50.600;4.608;2022-10-22T09:38:29;16.70;99.90
23991;DHT22;12205;50.600;4.608;2022-10-22T09:40:59;16.70;99.90
23991;DHT22;12205;50.600;4.608;2022-10-22T09:43:29;16.70;99.90
23991;DHT22;12205;50.600;4.608;2022-10-22T09:46:00;16.90;99.90
23991;DHT22;12205;50.600;4.608;2022-10-22T09:48:31;16.80;99.90
23991;DHT22;12205;50.600;4.608;2022-10-22T09:51:05;16.90;99.90
23991;DHT22;12205;50.600;4.608;2022-10-22T09:53:42;17.00;99.90
23991;DHT22;12205;50.600;4.608;2022-10-22T09:56:19;16.90;99.90
23991;DHT22;12205;50.600;4.608;2022-10-22T09:58:50;16.90;99.90
23991;DHT22;12205;50.600;4.608;2022-10-22T10:01:25;16.90;99.90
23991;DHT22;12205;50.600;4.608;2022-10-22T10:03:53;16.90;99.90
23991;DHT22;12205;50.600;4.608;2022-10-22T10:06:31;16.90;99.90
23991;DHT22;12205;50.600;4.608;2022-10-22T10:08:59;16.90;99.90
23991;DHT22;12205;50.600;4.608;2022-10-22T10:11:36;16.90;99.90
23991;DHT22;12205;50.600;4.608;2022-10-22T10:14:11;17.00;99.90
23991;DHT22;12205;50.600;4.608;2022-10-22T10:16:56;17.10;99.90
23991;DHT22;12205;50.600;4.608;2022-10-22T10:19:38;17.00;99.90
23991;DHT22;12205;50.600;4.608;2022-10-22T10:22:30;16.90;99.90
23991;DHT22;12205;50.600;4.608;2022-10-22T10:28:12;16.90;99.90
23991;DHT22;12205;50.600;4.608;2022-10-22T10:30:53;16.90;99.90
23991;DHT22;12205;50.600;4.608;2022-10-22T10:33:34;16.90;99.90
23991;DHT22;12205;50.600;4.608;2022-10-22T10:36:17;16.90;99.90
23991;DHT22;12205;50.600;4.608;2022-10-22T10:38:59;17.10;99.90
23991;DHT22;12205;50.600;4.608;2022-10-22T10:41:38;17.10;99.90
23991;DHT22;12205;50.600;4.608;2022-10-22T10:44:30;17.20;99.90
23991;DHT22;12205;50.600;4.608;2022-10-22T10:47:17;17.40;99.90
23991;DHT22;12205;50.600;4.608;2022-10-22T10:50:15;17.50;99.90
23991;DHT22;12205;50.600;4.608;2022-10-22T10:52:53;17.60;99.90
23991;DHT22;12205;50.600;4.608;2022-10-22T10:55:30;17.80;99.90
23991;DHT22;12205;50.600;4.608;2022-10-22T10:58:11;17.90;99.90
23991;DHT22;12205;50.600;4.608;2022-10-22T11:00:49;18.00;99.90
23991;DHT22;12205;50.600;4.608;2022-10-22T11:03:44;17.80;99.90
23991;DHT22;12205;50.600;4.608;2022-10-22T11:06:27;17.80;99.90
23991;DHT22;12205;50.600;4.608;2022-10-22T11:09:01;17.80;99.90
23991;DHT22;12205;50.600;4.608;2022-10-22T11:11:35;17.80;99.90
23991;DHT22;12205;50.600;4.608;2022-10-22T11:14:12;17.70;99.90
23991;DHT22;12205;50.600;4.608;2022-10-22T11:16:46;17.70;99.90
23991;DHT22;12205;50.600;4.608;2022-10-22T11:19:25;17.80;99.90
23991;DHT22;12205;50.600;4.608;2022-10-22T11:22:00;17.90;99.90
23991;DHT22;12205;50.600;4.608;2022-10-22T11:24:36;18.10;99.90
23991;DHT22;12205;50.600;4.608;2022-10-22T11:27:16;18.30;99.90
23991;DHT22;12205;50.600;4.608;2022-10-22T11:29:54;18.30;99.90
23991;DHT22;12205;50.600;4.608;2022-10-22T11:32:26;18.40;99.90
23991;DHT22;12205;50.600;4.608;2022-10-22T11:34:56;18.60;99.90
23991;DHT22;12205;50.600;4.608;2022-10-22T11:37:31;18.60;99.90
23991;DHT22;12205;50.600;4.608;2022-10-22T11:40:03;18.70;99.90
23991;DHT22;12205;50.600;4.608;2022-10-22T11:42:35;18.90;99.90
23991;DHT22;12205;50.600;4.608;2022-10-22T11:45:06;18.90;99.90
23991;DHT22;12205;50.600;4.608;2022-10-22T11:47:58;18.80;99.90
23991;DHT22;12205;50.600;4.608;2022-10-22T11:50:46;18.80;99.90
23991;DHT22;12205;50.600;4.608;2022-10-22T11:53:29;18.60;99.90
23991;DHT22;12205;50.600;4.608;2022-10-22T11:56:03;18.50;99.90
23991;DHT22;12205;50.600;4.608;2022-10-22T11:58:49;18.50;99.90
23991;DHT22;12205;50.600;4.608;2022-10-22T12:01:25;18.40;99.90
23991;DHT22;12205;50.600;4.608;2022-10-22T12:04:17;18.50;99.90
23991;DHT22;12205;50.600;4.608;2022-10-22T12:06:54;18.70;99.90
23991;DHT22;12205;50.600;4.608;2022-10-22T12:09:25;18.80;99.90
23991;DHT22;12205;50.600;4.608;2022-10-22T12:12:02;18.90;99.90
23991;DHT22;12205;50.600;4.608;2022-10-22T12:14:49;19.10;99.90
23991;DHT22;12205;50.600;4.608;2022-10-22T12:17:20;19.30;99.90
23991;DHT22;12205;50.600;4.608;2022-10-22T12:19:53;20.00;99.90
23991;DHT22;12205;50.600;4.608;2022-10-22T12:22:27;20.60;99.90
23991;DHT22;12205;50.600;4.608;2022-10-22T12:25:00;20.80;99.90
23991;DHT22;12205;50.600;4.608;2022-10-22T12:27:33;21.90;99.90
23991;DHT22;12205;50.600;4.608;2022-10-22T12:30:14;22.60;99.90
23991;DHT22;12205;50.600;4.608;2022-10-22T12:32:44;23.40;99.90
23991;DHT22;12205;50.600;4.608;2022-10-22T12:35:15;24.70;99.90
23991;DHT22;12205;50.600;4.608;2022-10-22T12:37:47;24.60;99.90
23991;DHT22;12205;50.600;4.608;2022-10-22T12:40:18;24.90;99.90
23991;DHT22;12205;50.600;4.608;2022-10-22T12:42:52;25.40;99.90
23991;DHT22;12205;50.600;4.608;2022-10-22T12:45:21;25.50;99.90
23991;DHT22;12205;50.600;4.608;2022-10-22T12:47:55;25.90;99.90
23991;DHT22;12205;50.600;4.608;2022-10-22T12:50:30;26.50;99.90
23991;DHT22;12205;50.600;4.608;2022-10-22T12:52:59;26.90;99.90
23991;DHT22;12205;50.600;4.608;2022-10-22T12:55:30;26.70;99.90
23991;DHT22;12205;50.600;4.608;2022-10-22T12:57:59;27.40;99.90
23991;DHT22;12205;50.600;4.608;2022-10-22T13:00:34;26.70;99.90
23991;DHT22;12205;50.600;4.608;2022-10-22T13:03:04;25.50;99.90
23991;DHT22;12205;50.600;4.608;2022-10-22T13:05:33;24.70;99.90
23991;DHT22;12205;50.600;4.608;2022-10-22T13:08:08;25.30;99.90
23991;DHT22;12205;50.600;4.608;2022-10-22T13:10:39;26.60;99.90
23991;DHT22;12205;50.600;4.608;2022-10-22T13:15:55;26.70;99.90
23991;DHT22;12205;50.600;4.608;2022-10-22T13:18:39;25.70;99.90
23991;DHT22;12205;50.600;4.608;2022-10-22T13:21:21;24.60;99.90
23991;DHT22;12205;50.600;4.608;2022-10-22T13:23:56;24.00;99.90
23991;DHT22;12205;50.600;4.608;2022-10-22T13:26:30;23.70;99.90
23991;DHT22;12205;50.600;4.608;2022-10-22T13:28:59;23.40;99.90
23991;DHT22;12205;50.600;4.608;2022-10-22T13:31:29;22.90;99.90
23991;DHT22;12205;50.600;4.608;2022-10-22T13:34:00;22.40;99.90
23991;DHT22;12205;50.600;4.608;2022-10-22T13:36:31;22.00;99.90
23991;DHT22;12205;50.600;4.608;2022-10-22T13:38:58;22.30;99.90
23991;DHT22;12205;50.600;4.608;2022-10-22T13:41:28;23.30;99.90
23991;DHT22;12205;50.600;4.608;2022-10-22T13:43:58;24.30;99.90
23991;DHT22;12205;50.600;4.608;2022-10-22T13:46:25;24.80;99.90
23991;DHT22;12205;50.600;4.608;2022-10-22T13:48:54;25.60;99.90
23991;DHT22;12205;50.600;4.608;2022-10-22T13:51:26;24.80;99.90
23991;DHT22;12205;50.600;4.608;2022-10-22T13:53:59;25.30;99.90
23991;DHT22;12205;50.600;4.608;2022-10-22T13:56:29;25.70;99.90
23991;DHT22;12205;50.600;4.608;2022-10-22T13:58:56;25.70;99.90
23991;DHT22;12205;50.600;4.608;2022-10-22T14:01:25;24.90;99.90
23991;DHT22;12205;50.600;4.608;2022-10-22T14:03:55;24.80;99.90
23991;DHT22;12205;50.600;4.608;2022-10-22T14:06:28;26.40;99.90
23991;DHT22;12205;50.600;4.608;2022-10-22T14:08:59;27.70;99.90
23991;DHT22;12205;50.600;4.608;2022-10-22T14:11:28;28.70;99.90
23991;DHT22;12205;50.600;4.608;2022-10-22T14:13:57;27.80;99.90
23991;DHT22;12205;50.600;4.608;2022-10-22T14:16:26;28.50;99.90
23991;DHT22;12205;50.600;4.608;2022-10-22T14:18:56;28.10;99.90
23991;DHT22;12205;50.600;4.608;2022-10-22T14:21:23;26.90;99.90
23991;DHT22;12205;50.600;4.608;2022-10-22T14:23:51;27.50;99.90
23991;DHT22;12205;50.600;4.608;2022-10-22T14:26:22;26.20;99.90
23991;DHT22;12205;50.600;4.608;2022-10-22T14:28:54;25.80;99.90
23991;DHT22;12205;50.600;4.608;2022-10-22T14:31:21;27.30;99.90
23991;DHT22;12205;50.600;4.608;2022-10-22T14:33:48;27.30;99.90
23991;DHT22;12205;50.600;4.608;2022-10-22T14:36:16;27.60;99.90
23991;DHT22;12205;50.600;4.608;2022-10-22T14:38:46;27.50;99.90
23991;DHT22;12205;50.600;4.608;2022-10-22T14:41:17;27.20;99.90
23991;DHT22;12205;50.600;4.608;2022-10-22T14:43:47;26.70;99.90
23991;DHT22;12205;50.600;4.608;2022-10-22T14:46:16;25.90;99.90
23991;DHT22;12205;50.600;4.608;2022-10-22T14:48:44;25.30;99.90
23991;DHT22;12205;50.600;4.608;2022-10-22T14:51:13;25.30;99.90
23991;DHT22;12205;50.600;4.608;2022-10-22T14:53:42;25.20;99.90
23991;DHT22;12205;50.600;4.608;2022-10-22T14:56:10;24.70;99.90
23991;DHT22;12205;50.600;4.608;2022-10-22T14:58:38;23.60;99.90
23991;DHT22;12205;50.600;4.608;2022-10-22T15:01:06;22.60;99.90
23991;DHT22;12205;50.600;4.608;2022-10-22T15:03:35;22.00;99.90
23991;DHT22;12205;50.600;4.608;2022-10-22T15:06:03;21.70;99.90
23991;DHT22;12205;50.600;4.608;2022-10-22T15:08:30;21.50;99.90
23991;DHT22;12205;50.600;4.608;2022-10-22T15:10:59;21.40;99.90
23991;DHT22;12205;50.600;4.608;2022-10-22T15:13:27;21.30;99.90
23991;DHT22;12205;50.600;4.608;2022-10-22T15:15:55;21.10;99.90
23991;DHT22;12205;50.600;4.608;2022-10-22T15:18:23;21.00;99.90
23991;DHT22;12205;50.600;4.608;2022-10-22T15:20:56;20.90;99.90
23991;DHT22;12205;50.600;4.608;2022-10-22T15:23:25;20.90;99.90
23991;DHT22;12205;50.600;4.608;2022-10-22T15:25:53;20.90;99.90
23991;DHT22;12205;50.600;4.608;2022-10-22T15:28:20;21.00;99.90
23991;DHT22;12205;50.600;4.608;2022-10-22T15:30:51;21.20;99.90
23991;DHT22;12205;50.600;4.608;2022-10-22T15:33:19;21.20;99.90
23991;DHT22;12205;50.600;4.608;2022-10-22T15:35:46;21.20;99.90
23991;DHT22;12205;50.600;4.608;2022-10-22T15:38:15;21.20;99.90
23991;DHT22;12205;50.600;4.608;2022-10-22T15:40:43;21.10;99.90
23991;DHT22;12205;50.600;4.608;2022-10-22T15:43:10;21.10;99.90
23991;DHT22;12205;50.600;4.608;2022-10-22T15:45:38;21.10;99.90
23991;DHT22;12205;50.600;4.608;2022-10-22T15:48:05;21.10;99.90
23991;DHT22;12205;50.600;4.608;2022-10-22T15:50:36;21.10;99.90
23991;DHT22;12205;50.600;4.608;2022-10-22T15:53:04;21.00;99.90
23991;DHT22;12205;50.600;4.608;2022-10-22T15:55:33;20.90;99.90
23991;DHT22;12205;50.600;4.608;2022-10-22T15:58:00;20.80;99.90
23991;DHT22;12205;50.600;4.608;2022-10-22T16:00:27;20.70;99.90
23991;DHT22;12205;50.600;4.608;2022-10-22T16:02:54;20.60;99.90
23991;DHT22;12205;50.600;4.608;2022-10-22T16:05:21;20.40;99.90
23991;DHT22;12205;50.600;4.608;2022-10-22T16:07:48;20.30;99.90